sensor_id;sensor_type;location;lat;lon;timestamp;pressure;altitude;pressure_sealevel;temperature;humidity
7022;BME280;3552;42.664;23.406;2022-08-19T00:01:36;49819.94;;;-141.28;100.00
7022;BME280;3552;42.664;23.406;2022-08-19T00:04:06;49780.69;;;-141.28;100.00
7022;BME280;3552;42.664;23.406;2022-08-19T00:06:37;49857.22;;;-141.28;100.00
7022;BME280;3552;42.664;23.406;2022-08-19T00:09:07;49902.34;;;-141.28;100.00
7022;BME280;3552;42.664;23.406;2022-08-19T00:11:36;49953.38;;;-141.28;100.00
7022;BME280;3552;42.664;23.406;2022-08-19T00:14:05;49957.31;;;-141.28;100.00
7022;BME280;3552;42.664;23.406;2022-08-19T00:16:36;49923.94;;;-141.28;100.00
7022;BME280;3552;42.664;23.406;2022-08-19T00:19:04;49880.75;;;-141.28;100.00
7022;BME280;3552;42.664;23.406;2022-08-19T00:21:32;49847.41;;;-141.28;100.00
7022;BME280;3552;42.664;23.406;2022-08-19T00:24:06;49839.56;;;-141.28;100.00
7022;BME280;3552;42.664;23.406;2022-08-19T00:26:34;49843.47;;;-141.28;100.00
7022;BME280;3552;42.664;23.406;2022-08-19T00:29:01;49788.53;;;-141.28;100.00
7022;BME280;3552;42.664;23.406;2022-08-19T00:31:29;49792.44;;;-141.28;100.00
7022;BME280;3552;42.664;23.406;2022-08-19T00:33:56;49812.06;;;-141.28;100.00
7022;BME280;3552;42.664;23.406;2022-08-19T00:36:23;49849.38;;;-141.28;100.00
7022;BME280;3552;42.664;23.406;2022-08-19T00:38:50;49812.06;;;-141.28;100.00
7022;BME280;3552;42.664;23.406;2022-08-19T00:41:21;49792.44;;;-141.28;100.00
7022;BME280;3552;42.664;23.406;2022-08-19T00:43:58;49810.13;;;-141.28;100.00
7022;BME280;3552;42.664;23.406;2022-08-19T00:46:25;49831.69;;;-141.28;100.00
7022;BME280;3552;42.664;23.406;2022-08-19T00:48:53;49798.34;;;-141.28;100.00
7022;BME280;3552;42.664;23.406;2022-08-19T00:51:20;49857.22;;;-141.28;100.00
7022;BME280;3552;42.664;23.406;2022-08-19T00:53:49;49855.25;;;-141.28;100.00
7022;BME280;3552;42.664;23.406;2022-08-19T00:56:16;49835.63;;;-141.28;100.00
7022;BME280;3552;42.664;23.406;2022-08-19T00:58:46;49867.03;;;-141.28;100.00
7022;BME280;3552;42.664;23.406;2022-08-19T01:01:13;49867.03;;;-141.28;100.00
7022;BME280;3552;42.664;23.406;2022-08-19T01:03:41;49910.19;;;-141.28;100.00
7022;BME280;3552;42.664;23.406;2022-08-19T01:06:08;49839.56;;;-141.28;100.00
7022;BME280;3552;42.664;23.406;2022-08-19T01:08:35;49839.56;;;-141.28;100.00
7022;BME280;3552;42.664;23.406;2022-08-19T01:11:02;49841.50;;;-141.28;100.00
7022;BME280;3552;42.664;23.406;2022-08-19T01:13:32;49867.03;;;-141.28;100.00
7022;BME280;3552;42.664;23.406;2022-08-19T01:16:05;49906.28;;;-141.28;100.00
7022;BME280;3552;42.664;23.406;2022-08-19T01:18:38;49939.63;;;-141.28;100.00
7022;BME280;3552;42.664;23.406;2022-08-19T01:21:10;50020.09;;;-141.28;100.00
7022;BME280;3552;42.664;23.406;2022-08-19T01:23:43;50071.13;;;-141.28;100.00
7022;BME280;3552;42.664;23.406;2022-08-19T01:26:12;50080.94;;;-141.28;100.00
7022;BME280;3552;42.664;23.406;2022-08-19T01:28:42;50165.34;;;-141.28;100.00
7022;BME280;3552;42.664;23.406;2022-08-19T01:31:13;50173.19;;;-141.28;100.00
7022;BME280;3552;42.664;23.406;2022-08-19T01:33:40;50200.66;;;-141.28;100.00
7022;BME280;3552;42.664;23.406;2022-08-19T01:36:10;50241.88;;;-141.28;100.00
7022;BME280;3552;42.664;23.406;2022-08-19T01:38:40;50249.75;;;-141.28;100.00
7022;BME280;3552;42.664;23.406;2022-08-19T01:41:10;50253.66;;;-141.28;100.00
7022;BME280;3552;42.664;23.406;2022-08-19T01:43:37;50290.97;;;-141.28;100.00
7022;BME280;3552;42.664;23.406;2022-08-19T01:46:04;50275.25;;;-141.28;100.00
7022;BME280;3552;42.664;23.406;2022-08-19T01:48:37;50267.41;;;-141.28;100.00
7022;BME280;3552;42.664;23.406;2022-08-19T01:51:06;50277.22;;;-141.28;100.00
7022;BME280;3552;42.664;23.406;2022-08-19T01:53:33;50314.50;;;-141.28;100.00
7022;BME280;3552;42.664;23.406;2022-08-19T01:56:02;50287.03;;;-141.28;100.00
7022;BME280;3552;42.664;23.406;2022-08-19T01:58:34;50294.88;;;-141.28;100.00
7022;BME280;3552;42.664;23.406;2022-08-19T02:01:03;50283.09;;;-141.28;100.00
7022;BME280;3552;42.664;23.406;2022-08-19T02:03:31;50294.88;;;-141.28;100.00
7022;BME280;3552;42.664;23.406;2022-08-19T02:06:01;50287.03;;;-141.28;100.00
7022;BME280;3552;42.664;23.406;2022-08-19T02:08:33;50320.41;;;-141.28;100.00
7022;BME280;3552;42.664;23.406;2022-08-19T02:11:02;50292.91;;;-141.28;100.00
7022;BME280;3552;42.664;23.406;2022-08-19T02:13:31;50287.03;;;-141.28;100.00
7022;BME280;3552;42.664;23.406;2022-08-19T02:15:58;50326.28;;;-141.28;100.00
7022;BME280;3552;42.664;23.406;2022-08-19T02:18:25;50300.78;;;-141.28;100.00
7022;BME280;3552;42.664;23.406;2022-08-19T02:20:53;50345.91;;;-141.28;100.00
7022;BME280;3552;42.664;23.406;2022-08-19T02:23:20;50357.69;;;-141.28;100.00
7022;BME280;3552;42.664;23.406;2022-08-19T02:25:48;50345.91;;;-141.28;100.00
7022;BME280;3552;42.664;23.406;2022-08-19T02:28:18;50359.66;;;-141.28;100.00
7022;BME280;3552;42.664;23.406;2022-08-19T02:30:47;50361.63;;;-141.28;100.00
7022;BME280;3552;42.664;23.406;2022-08-19T02:33:14;50347.88;;;-141.28;100.00
7022;BME280;3552;42.664;23.406;2022-08-19T02:35:43;50349.84;;;-141.28;100.00
7022;BME280;3552;42.664;23.406;2022-08-19T02:38:11;50332.19;;;-141.28;100.00
7022;BME280;3552;42.664;23.406;2022-08-19T02:40:55;50389.09;;;-141.28;100.00
7022;BME280;3552;42.664;23.406;2022-08-19T02:43:23;50373.38;;;-141.28;100.00
7022;BME280;3552;42.664;23.406;2022-08-19T02:45:53;50361.63;;;-141.28;100.00
7022;BME280;3552;42.664;23.406;2022-08-19T02:48:23;50355.72;;;-141.28;100.00
7022;BME280;3552;42.664;23.406;2022-08-19T02:50:52;50359.66;;;-141.28;100.00
7022;BME280;3552;42.664;23.406;2022-08-19T02:53:23;50345.91;;;-141.28;100.00
7022;BME280;3552;42.664;23.406;2022-08-19T02:55:51;50361.63;;;-141.28;100.00
7022;BME280;3552;42.664;23.406;2022-08-19T02:58:19;50379.28;;;-141.28;100.00
7022;BME280;3552;42.664;23.406;2022-08-19T03:00:49;50377.31;;;-141.28;100.00
7022;BME280;3552;42.664;23.406;2022-08-19T03:03:20;50393.03;;;-141.28;100.00
7022;BME280;3552;42.664;23.406;2022-08-19T03:05:49;50406.75;;;-141.28;100.00
7022;BME280;3552;42.664;23.406;2022-08-19T03:08:17;50400.88;;;-141.28;100.00
7022;BME280;3552;42.664;23.406;2022-08-19T03:10:46;50412.66;;;-141.28;100.00
7022;BME280;3552;42.664;23.406;2022-08-19T03:13:16;50402.84;;;-141.28;100.00
7022;BME280;3552;42.664;23.406;2022-08-19T03:15:46;50428.34;;;-141.28;100.00
7022;BME280;3552;42.664;23.406;2022-08-19T03:18:14;50400.88;;;-141.28;100.00
7022;BME280;3552;42.664;23.406;2022-08-19T03:20:44;50408.72;;;-141.28;100.00
7022;BME280;3552;42.664;23.406;2022-08-19T03:23:13;50389.09;;;-141.28;100.00
7022;BME280;3552;42.664;23.406;2022-08-19T03:25:42;50412.66;;;-141.28;100.00
7022;BME280;3552;42.664;23.406;2022-08-19T03:28:11;50385.16;;;-141.28;100.00
7022;BME280;3552;42.664;23.406;2022-08-19T03:30:38;50410.69;;;-141.28;100.00
7022;BME280;3552;42.664;23.406;2022-08-19T03:33:06;50398.91;;;-141.28;100.00
7022;BME280;3552;42.664;23.406;2022-08-19T03:35:34;50444.06;;;-141.28;100.00
7022;BME280;3552;42.664;23.406;2022-08-19T03:38:04;50440.13;;;-141.28;100.00
7022;BME280;3552;42.664;23.406;2022-08-19T03:40:32;50424.44;;;-141.28;100.00
7022;BME280;3552;42.664;23.406;2022-08-19T03:43:03;50487.25;;;-141.28;100.00
7022;BME280;3552;42.664;23.406;2022-08-19T03:45:32;50497.06;;;-141.28;100.00
7022;BME280;3552;42.664;23.406;2022-08-19T03:47:59;50499.00;;;-141.28;100.00
7022;BME280;3552;42.664;23.406;2022-08-19T03:50:26;50481.34;;;-141.28;100.00
7022;BME280;3552;42.664;23.406;2022-08-19T03:52:54;50420.50;;;-141.28;100.00
7022;BME280;3552;42.664;23.406;2022-08-19T03:55:23;50436.19;;;-141.28;100.00
7022;BME280;3552;42.664;23.406;2022-08-19T03:57:51;50475.47;;;-141.28;100.00
7022;BME280;3552;42.664;23.406;2022-08-19T04:00:19;50459.75;;;-141.28;100.00
7022;BME280;3552;42.664;23.406;2022-08-19T04:02:47;50416.56;;;-141.28;100.00
7022;BME280;3552;42.664;23.406;2022-08-19T04:05:14;50412.66;;;-141.28;100.00
7022;BME280;3552;42.664;23.406;2022-08-19T04:07:41;50416.56;;;-141.28;100.00
7022;BME280;3552;42.664;23.406;2022-08-19T04:10:09;50408.72;;;-141.28;100.00
7022;BME280;3552;42.664;23.406;2022-08-19T04:12:39;50453.88;;;-141.28;100.00
7022;BME280;3552;42.664;23.406;2022-08-19T04:15:08;50463.69;;;-141.28;100.00
7022;BME280;3552;42.664;23.406;2022-08-19T04:17:37;50499.00;;;-141.28;100.00
7022;BME280;3552;42.664;23.406;2022-08-19T04:20:07;50534.34;;;-141.28;100.00
7022;BME280;3552;42.664;23.406;2022-08-19T04:22:35;50636.41;;;-141.28;100.00
7022;BME280;3552;42.664;23.406;2022-08-19T04:25:03;50630.53;;;-141.28;100.00
7022;BME280;3552;42.664;23.406;2022-08-19T04:27:31;50683.53;;;-141.28;100.00
7022;BME280;3552;42.664;23.406;2022-08-19T04:30:00;50691.38;;;-141.28;100.00
7022;BME280;3552;42.664;23.406;2022-08-19T04:32:27;50681.56;;;-141.28;100.00
7022;BME280;3552;42.664;23.406;2022-08-19T04:34:57;50711.00;;;-141.28;100.00
7022;BME280;3552;42.664;23.406;2022-08-19T04:37:24;50707.09;;;-141.28;100.00
7022;BME280;3552;42.664;23.406;2022-08-19T04:39:52;50726.72;;;-141.28;100.00
7022;BME280;3552;42.664;23.406;2022-08-19T04:42:36;50758.13;;;-141.28;100.00
7022;BME280;3552;42.664;23.406;2022-08-19T04:45:11;50758.13;;;-141.28;100.00
7022;BME280;3552;42.664;23.406;2022-08-19T04:47:39;50758.13;;;-141.28;100.00
7022;BME280;3552;42.664;23.406;2022-08-19T04:50:09;50777.75;;;-141.28;100.00
7022;BME280;3552;42.664;23.406;2022-08-19T04:52:37;50789.53;;;-141.28;100.00
7022;BME280;3552;42.664;23.406;2022-08-19T04:55:08;50769.91;;;-141.28;100.00
7022;BME280;3552;42.664;23.406;2022-08-19T04:57:36;50762.06;;;-141.28;100.00
7022;BME280;3552;42.664;23.406;2022-08-19T05:00:09;50730.66;;;-141.28;100.00
7022;BME280;3552;42.664;23.406;2022-08-19T05:02:37;50748.31;;;-141.28;100.00
7022;BME280;3552;42.664;23.406;2022-08-19T05:05:04;50769.91;;;-141.28;100.00
7022;BME280;3552;42.664;23.406;2022-08-19T05:07:33;50738.50;;;-141.28;100.00
7022;BME280;3552;42.664;23.406;2022-08-19T05:10:00;50760.09;;;-141.28;100.00
7022;BME280;3552;42.664;23.406;2022-08-19T05:12:30;50658.00;;;-141.28;100.00
7022;BME280;3552;42.664;23.406;2022-08-19T05:14:59;50614.81;;;-141.28;100.00
7022;BME280;3552;42.664;23.406;2022-08-19T05:17:28;50518.66;;;-141.28;100.00
7022;BME280;3552;42.664;23.406;2022-08-19T05:19:55;50510.78;;;-141.28;100.00
7022;BME280;3552;42.664;23.406;2022-08-19T05:22:40;50495.09;;;-141.28;100.00
7022;BME280;3552;42.664;23.406;2022-08-19T05:25:09;50467.59;;;-141.28;100.00
7022;BME280;3552;42.664;23.406;2022-08-19T05:27:37;50436.19;;;-141.28;100.00
7022;BME280;3552;42.664;23.406;2022-08-19T05:30:07;50343.94;;;-141.28;100.00
7022;BME280;3552;42.664;23.406;2022-08-19T05:32:36;50357.69;;;-141.28;100.00
7022;BME280;3552;42.664;23.406;2022-08-19T05:35:04;50249.75;;;-141.28;100.00
7022;BME280;3552;42.664;23.406;2022-08-19T05:37:31;50279.19;;;-141.28;100.00
7022;BME280;3552;42.664;23.406;2022-08-19T05:39:58;50139.81;;;-141.28;100.00
7022;BME280;3552;42.664;23.406;2022-08-19T05:42:27;50096.66;;;-141.28;100.00
7022;BME280;3552;42.664;23.406;2022-08-19T05:44:57;50055.44;;;-141.28;100.00
7022;BME280;3552;42.664;23.406;2022-08-19T05:47:24;50057.41;;;-141.28;100.00
7022;BME280;3552;42.664;23.406;2022-08-19T05:49:54;49982.81;;;-141.28;100.00
7022;BME280;3552;42.664;23.406;2022-08-19T05:52:23;49992.63;;;-141.28;100.00
7022;BME280;3552;42.664;23.406;2022-08-19T05:54:50;49996.56;;;-141.28;100.00
7022;BME280;3552;42.664;23.406;2022-08-19T05:57:17;49906.28;;;-141.28;100.00
7022;BME280;3552;42.664;23.406;2022-08-19T05:59:44;49870.94;;;-141.28;100.00
7022;BME280;3552;42.664;23.406;2022-08-19T06:02:17;49849.38;;;-141.28;100.00
7022;BME280;3552;42.664;23.406;2022-08-19T06:04:45;49761.06;;;-141.28;100.00
7022;BME280;3552;42.664;23.406;2022-08-19T06:07:17;49780.69;;;-141.28;100.00
7022;BME280;3552;42.664;23.406;2022-08-19T06:09:46;49733.56;;;-141.28;100.00
7022;BME280;3552;42.664;23.406;2022-08-19T06:12:14;49670.78;;;-141.28;100.00
7022;BME280;3552;42.664;23.406;2022-08-19T06:14:42;49694.31;;;-141.28;100.00
7022;BME280;3552;42.664;23.406;2022-08-19T06:17:10;49631.53;;;-141.28;100.00
7022;BME280;3552;42.664;23.406;2022-08-19T06:19:39;49662.94;;;-141.28;100.00
7022;BME280;3552;42.664;23.406;2022-08-19T06:22:09;49615.84;;;-141.28;100.00
7022;BME280;3552;42.664;23.406;2022-08-19T06:24:41;49607.97;;;-141.28;100.00
7022;BME280;3552;42.664;23.406;2022-08-19T06:27:08;49588.34;;;-141.28;100.00
7022;BME280;3552;42.664;23.406;2022-08-19T06:29:37;49827.78;;;-141.28;100.00
7022;BME280;3552;42.664;23.406;2022-08-19T06:32:04;50118.25;;;-141.28;100.00
7022;BME280;3552;42.664;23.406;2022-08-19T06:34:33;50110.38;;;-141.28;100.00
7022;BME280;3552;42.664;23.406;2022-08-19T06:37:01;50151.59;;;-141.28;100.00
7022;BME280;3552;42.664;23.406;2022-08-19T06:39:30;50133.94;;;-141.28;100.00
7022;BME280;3552;42.664;23.406;2022-08-19T06:42:02;50098.63;;;-141.28;100.00
7022;BME280;3552;42.664;23.406;2022-08-19T06:44:36;50086.84;;;-141.28;100.00
7022;BME280;3552;42.664;23.406;2022-08-19T06:47:05;50082.91;;;-141.28;100.00
7022;BME280;3552;42.664;23.406;2022-08-19T06:49:33;50075.06;;;-141.28;100.00
7022;BME280;3552;42.664;23.406;2022-08-19T06:52:00;50039.72;;;-141.28;100.00
7022;BME280;3552;42.664;23.406;2022-08-19T06:54:28;49996.56;;;-141.28;100.00
7022;BME280;3552;42.664;23.406;2022-08-19T06:56:56;49992.63;;;-141.28;100.00
7022;BME280;3552;42.664;23.406;2022-08-19T06:59:25;49920.00;;;-141.28;100.00
7022;BME280;3552;42.664;23.406;2022-08-19T07:01:56;49886.66;;;-141.28;100.00
7022;BME280;3552;42.664;23.406;2022-08-19T07:04:28;49872.91;;;-141.28;100.00
7022;BME280;3552;42.664;23.406;2022-08-19T07:06:58;49768.91;;;-141.28;100.00
7022;BME280;3552;42.664;23.406;2022-08-19T07:09:26;49766.94;;;-141.28;100.00
7022;BME280;3552;42.664;23.406;2022-08-19T07:11:54;49702.19;;;-141.28;100.00
7022;BME280;3552;42.664;23.406;2022-08-19T07:14:23;49574.63;;;-141.28;100.00
7022;BME280;3552;42.664;23.406;2022-08-19T07:16:55;49509.88;;;-141.28;100.00
7022;BME280;3552;42.664;23.406;2022-08-19T07:19:23;49358.78;;;-141.28;100.00
7022;BME280;3552;42.664;23.406;2022-08-19T07:21:53;49345.03;;;-141.28;100.00
7022;BME280;3552;42.664;23.406;2022-08-19T07:24:22;49154.72;;;-141.28;100.00
7022;BME280;3552;42.664;23.406;2022-08-19T07:26:51;49062.50;;;-141.28;100.00
7022;BME280;3552;42.664;23.406;2022-08-19T07:29:21;49105.66;;;-141.28;100.00
7022;BME280;3552;42.664;23.406;2022-08-19T07:31:49;49027.19;;;-141.28;100.00
7022;BME280;3552;42.664;23.406;2022-08-19T07:34:19;49021.28;;;-141.28;100.00
7022;BME280;3552;42.664;23.406;2022-08-19T07:36:46;49105.66;;;-141.28;100.00
7022;BME280;3552;42.664;23.406;2022-08-19T07:39:16;49056.59;;;-141.28;100.00
7022;BME280;3552;42.664;23.406;2022-08-19T07:41:44;49011.47;;;-141.28;100.00
7022;BME280;3552;42.664;23.406;2022-08-19T07:44:13;48995.78;;;-141.28;100.00
7022;BME280;3552;42.664;23.406;2022-08-19T07:46:43;48917.31;;;-141.28;100.00
7022;BME280;3552;42.664;23.406;2022-08-19T07:49:12;48885.91;;;-141.28;100.00
7022;BME280;3552;42.664;23.406;2022-08-19T07:51:45;48854.53;;;-141.28;100.00
7022;BME280;3552;42.664;23.406;2022-08-19T07:54:12;48799.59;;;-141.28;100.00
7022;BME280;3552;42.664;23.406;2022-08-19T07:56:41;48846.69;;;-141.28;100.00
7022;BME280;3552;42.664;23.406;2022-08-19T07:59:09;48750.53;;;-141.28;100.00
7022;BME280;3552;42.664;23.406;2022-08-19T08:01:37;48697.56;;;-141.28;100.00
7022;BME280;3552;42.664;23.406;2022-08-19T08:04:06;48701.50;;;-141.28;100.00
7022;BME280;3552;42.664;23.406;2022-08-19T08:06:53;48705.41;;;-141.28;100.00
7022;BME280;3552;42.664;23.406;2022-08-19T08:09:40;48717.19;;;-141.28;100.00
7022;BME280;3552;42.664;23.406;2022-08-19T08:12:10;49050.72;;;-141.28;100.00
7022;BME280;3552;42.664;23.406;2022-08-19T08:14:40;48662.25;;;-141.28;100.00
7022;BME280;3552;42.664;23.406;2022-08-19T08:17:08;48721.13;;;-141.28;100.00
7022;BME280;3552;42.664;23.406;2022-08-19T08:19:35;48607.31;;;-141.28;100.00
7022;BME280;3552;42.664;23.406;2022-08-19T08:22:06;48636.75;;;-141.28;100.00
7022;BME280;3552;42.664;23.406;2022-08-19T08:24:33;48650.50;;;-141.28;100.00
7022;BME280;3552;42.664;23.406;2022-08-19T08:27:01;48599.47;;;-141.28;100.00
7022;BME280;3552;42.664;23.406;2022-08-19T08:29:30;48644.59;;;-141.28;100.00
7022;BME280;3552;42.664;23.406;2022-08-19T08:31:58;48621.06;;;-141.28;100.00
7022;BME280;3552;42.664;23.406;2022-08-19T08:34:25;48636.75;;;-141.28;100.00
7022;BME280;3552;42.664;23.406;2022-08-19T08:36:54;48640.69;;;-141.28;100.00
7022;BME280;3552;42.664;23.406;2022-08-19T08:39:22;48991.84;;;-141.28;100.00
7022;BME280;3552;42.664;23.406;2022-08-19T08:41:53;48650.50;;;-141.28;100.00
7022;BME280;3552;42.664;23.406;2022-08-19T08:44:31;48658.34;;;-141.28;100.00
7022;BME280;3552;42.664;23.406;2022-08-19T08:47:11;48644.59;;;-141.28;100.00
7022;BME280;3552;42.664;23.406;2022-08-19T08:49:43;48626.94;;;-141.28;100.00
7022;BME280;3552;42.664;23.406;2022-08-19T08:52:17;48634.78;;;-141.28;100.00
7022;BME280;3552;42.664;23.406;2022-08-19T08:54:48;48642.63;;;-141.28;100.00
7022;BME280;3552;42.664;23.406;2022-08-19T08:57:20;48623.03;;;-141.28;100.00
7022;BME280;3552;42.664;23.406;2022-08-19T08:59:51;48611.25;;;-141.28;92.51
7022;BME280;3552;42.664;23.406;2022-08-19T09:02:20;48630.88;;;-141.28;92.54
7022;BME280;3552;42.664;23.406;2022-08-19T09:04:47;48632.84;;;-141.28;98.10
7022;BME280;3552;42.664;23.406;2022-08-19T09:07:27;48595.56;;;-141.28;100.00
7022;BME280;3552;42.664;23.406;2022-08-19T09:10:05;48595.56;;;-141.28;92.11
7022;BME280;3552;42.664;23.406;2022-08-19T09:12:40;48573.97;;;-141.28;83.81
7022;BME280;3552;42.664;23.406;2022-08-19T09:15:12;48583.78;;;-141.28;79.24
7022;BME280;3552;42.664;23.406;2022-08-19T09:17:40;48572.00;;;-141.28;77.11
7022;BME280;3552;42.664;23.406;2022-08-19T09:20:15;48564.16;;;-141.28;75.69
7022;BME280;3552;42.664;23.406;2022-08-19T09:22:44;48564.16;;;-141.28;68.07
7022;BME280;3552;42.664;23.406;2022-08-19T09:25:18;48575.94;;;-141.28;70.20
7022;BME280;3552;42.664;23.406;2022-08-19T09:27:51;48568.09;;;-141.28;62.33
7022;BME280;3552;42.664;23.406;2022-08-19T09:30:21;48564.16;;;-141.28;61.10
7022;BME280;3552;42.664;23.406;2022-08-19T09:32:54;48575.94;;;-141.28;61.62
7022;BME280;3552;42.664;23.406;2022-08-19T09:35:23;48554.34;;;-141.28;62.88
7022;BME280;3552;42.664;23.406;2022-08-19T09:38:06;48558.28;;;-141.28;56.82
7022;BME280;3552;42.664;23.406;2022-08-19T09:40:37;48448.44;;;-141.28;54.91
7022;BME280;3552;42.664;23.406;2022-08-19T09:43:04;48556.31;;;-141.28;55.53
7022;BME280;3552;42.664;23.406;2022-08-19T09:45:33;48538.66;;;-141.28;51.28
7022;BME280;3552;42.664;23.406;2022-08-19T09:48:10;48522.97;;;-141.28;49.89
7022;BME280;3552;42.664;23.406;2022-08-19T09:50:38;48530.81;;;-141.28;49.80
7022;BME280;3552;42.664;23.406;2022-08-19T09:53:05;48515.13;;;-141.28;49.79
7022;BME280;3552;42.664;23.406;2022-08-19T09:55:34;48513.16;;;-141.28;49.18
7022;BME280;3552;42.664;23.406;2022-08-19T09:58:01;48524.94;;;-141.28;49.56
7022;BME280;3552;42.664;23.406;2022-08-19T10:00:29;48473.94;;;-141.28;48.63
7022;BME280;3552;42.664;23.406;2022-08-19T10:02:57;48521.00;;;-141.28;48.93
7022;BME280;3552;42.664;23.406;2022-08-19T10:05:25;48528.84;;;-141.28;49.08
7022;BME280;3552;42.664;23.406;2022-08-19T10:08:09;48513.16;;;-141.28;48.96
7022;BME280;3552;42.664;23.406;2022-08-19T10:10:42;48493.53;;;-141.28;50.07
7022;BME280;3552;42.664;23.406;2022-08-19T10:13:09;48513.16;;;-141.28;48.79
7022;BME280;3552;42.664;23.406;2022-08-19T10:15:37;48503.34;;;-141.28;49.07
7022;BME280;3552;42.664;23.406;2022-08-19T10:18:07;48471.97;;;-141.28;46.33
7022;BME280;3552;42.664;23.406;2022-08-19T10:20:35;48458.22;;;-141.28;45.94
7022;BME280;3552;42.664;23.406;2022-08-19T10:23:07;48450.38;;;-141.28;46.48
7022;BME280;3552;42.664;23.406;2022-08-19T10:25:35;48479.81;;;-141.28;48.74
7022;BME280;3552;42.664;23.406;2022-08-19T10:28:06;48471.97;;;-141.28;47.81
7022;BME280;3552;42.664;23.406;2022-08-19T10:30:33;48481.78;;;-141.28;45.95
7022;BME280;3552;42.664;23.406;2022-08-19T10:33:01;48473.94;;;-141.28;47.70
7022;BME280;3552;42.664;23.406;2022-08-19T10:35:28;48501.41;;;-141.28;46.88
7022;BME280;3552;42.664;23.406;2022-08-19T10:37:55;48519.06;;;-141.28;47.49
7022;BME280;3552;42.664;23.406;2022-08-19T10:40:38;48524.94;;;-141.28;48.29
7022;BME280;3552;42.664;23.406;2022-08-19T10:43:08;48528.84;;;-141.28;52.46
7022;BME280;3552;42.664;23.406;2022-08-19T10:45:36;48489.63;;;-141.28;49.23
7022;BME280;3552;42.664;23.406;2022-08-19T10:48:05;48485.69;;;-141.28;47.22
7022;BME280;3552;42.664;23.406;2022-08-19T10:50:31;48458.22;;;-141.28;46.25
7022;BME280;3552;42.664;23.406;2022-08-19T10:53:16;48477.84;;;-141.28;48.74
7022;BME280;3552;42.664;23.406;2022-08-19T10:55:44;48462.16;;;-141.28;46.53
7022;BME280;3552;42.664;23.406;2022-08-19T10:58:31;48454.31;;;-141.28;45.80
7022;BME280;3552;42.664;23.406;2022-08-19T11:00:58;48422.94;;;-141.28;46.74
7022;BME280;3552;42.664;23.406;2022-08-19T11:03:26;48493.53;;;-141.28;44.82
7022;BME280;3552;42.664;23.406;2022-08-19T11:05:58;48468.03;;;-141.28;46.04
7022;BME280;3552;42.664;23.406;2022-08-19T11:08:26;48434.69;;;-141.28;46.18
7022;BME280;3552;42.664;23.406;2022-08-19T11:10:54;48470.00;;;-141.28;45.12
7022;BME280;3552;42.664;23.406;2022-08-19T11:13:22;48456.28;;;-141.28;46.29
7022;BME280;3552;42.664;23.406;2022-08-19T11:15:59;48430.78;;;-141.28;45.18
7022;BME280;3552;42.664;23.406;2022-08-19T11:18:27;48497.47;;;-141.28;47.15
7022;BME280;3552;42.664;23.406;2022-08-19T11:20:54;48479.81;;;-141.28;46.55
7022;BME280;3552;42.664;23.406;2022-08-19T11:23:21;48458.22;;;-141.28;45.66
7022;BME280;3552;42.664;23.406;2022-08-19T11:25:49;48536.69;;;-141.28;48.64
7022;BME280;3552;42.664;23.406;2022-08-19T11:28:16;48471.97;;;-141.28;45.91
7022;BME280;3552;42.664;23.406;2022-08-19T11:30:43;48462.16;;;-141.28;46.74
7022;BME280;3552;42.664;23.406;2022-08-19T11:33:12;48466.09;;;-141.28;45.52
7022;BME280;3552;42.664;23.406;2022-08-19T11:35:40;48444.50;;;-141.28;45.98
7022;BME280;3552;42.664;23.406;2022-08-19T11:38:08;48450.38;;;-141.28;44.66
7022;BME280;3552;42.664;23.406;2022-08-19T11:40:35;48466.09;;;-141.28;46.15
7022;BME280;3552;42.664;23.406;2022-08-19T11:43:02;48454.31;;;-141.28;45.55
7022;BME280;3552;42.664;23.406;2022-08-19T11:45:30;48466.09;;;-141.28;45.67
7022;BME280;3552;42.664;23.406;2022-08-19T11:47:57;48462.16;;;-141.28;45.71
7022;BME280;3552;42.664;23.406;2022-08-19T11:50:25;48850.59;;;-141.28;45.68
7022;BME280;3552;42.664;23.406;2022-08-19T11:52:54;48422.94;;;-141.28;44.47
7022;BME280;3552;42.664;23.406;2022-08-19T11:55:21;48415.06;;;-141.28;43.17
7022;BME280;3552;42.664;23.406;2022-08-19T11:57:48;48422.94;;;-141.28;44.33
7022;BME280;3552;42.664;23.406;2022-08-19T12:00:17;48419.00;;;-141.28;43.65
7022;BME280;3552;42.664;23.406;2022-08-19T12:02:45;48413.13;;;-141.28;42.92
7022;BME280;3552;42.664;23.406;2022-08-19T12:05:12;48415.06;;;-141.28;42.97
7022;BME280;3552;42.664;23.406;2022-08-19T12:07:40;48420.97;;;-141.28;42.43
7022;BME280;3552;42.664;23.406;2022-08-19T12:10:10;48420.97;;;-141.28;43.91
7022;BME280;3552;42.664;23.406;2022-08-19T12:12:38;48411.16;;;-141.28;43.54
7022;BME280;3552;42.664;23.406;2022-08-19T12:15:08;48403.31;;;-141.28;43.20
7022;BME280;3552;42.664;23.406;2022-08-19T12:17:37;48381.72;;;-141.28;42.91
7022;BME280;3552;42.664;23.406;2022-08-19T12:20:06;48383.69;;;-141.28;43.36
7022;BME280;3552;42.664;23.406;2022-08-19T12:22:34;48383.69;;;-141.28;41.47
7022;BME280;3552;42.664;23.406;2022-08-19T12:25:05;48387.63;;;-141.28;42.69
7022;BME280;3552;42.664;23.406;2022-08-19T12:27:32;48375.84;;;-141.28;41.82
7022;BME280;3552;42.664;23.406;2022-08-19T12:30:01;48393.50;;;-141.28;41.31
7022;BME280;3552;42.664;23.406;2022-08-19T12:32:28;48409.19;;;-141.28;42.16
7022;BME280;3552;42.664;23.406;2022-08-19T12:34:56;48391.53;;;-141.28;42.31
7022;BME280;3552;42.664;23.406;2022-08-19T12:37:24;48328.75;;;-141.28;42.75
7022;BME280;3552;42.664;23.406;2022-08-19T12:39:52;48395.47;;;-141.28;42.25
7022;BME280;3552;42.664;23.406;2022-08-19T12:42:20;48375.84;;;-141.28;41.00
7022;BME280;3552;42.664;23.406;2022-08-19T12:44:48;48401.34;;;-141.28;41.58
7022;BME280;3552;42.664;23.406;2022-08-19T12:47:16;48411.16;;;-141.28;43.30
7022;BME280;3552;42.664;23.406;2022-08-19T12:49:44;48407.22;;;-141.28;43.39
7022;BME280;3552;42.664;23.406;2022-08-19T12:52:12;48389.56;;;-141.28;43.25
7022;BME280;3552;42.664;23.406;2022-08-19T12:54:42;48360.16;;;-141.28;42.34